createdAt,value
2023-02-14T00:01:30.034Z,20.85
2023-02-14T00:04:01.912Z,22.33
2023-02-14T00:06:35.714Z,23.92
2023-02-14T00:09:16.078Z,25.23
2023-02-14T00:11:48.098Z,21.17
2023-02-14T00:14:38.690Z,21.35
2023-02-14T00:17:10.532Z,25.17
2023-02-14T00:19:42.408Z,21.15
2023-02-14T00:22:14.269Z,19.40
2023-02-14T00:24:46.452Z,21.13
2023-02-14T00:27:18.305Z,21.10
2023-02-14T00:29:50.259Z,19.02
2023-02-14T00:32:22.196Z,20.33
2023-02-14T00:34:54.022Z,18.73
2023-02-14T00:37:25.921Z,25.20
2023-02-14T00:39:58.258Z,22.25
2023-02-14T00:42:30.199Z,20.48
2023-02-14T00:45:02.071Z,21.80
2023-02-14T00:47:33.934Z,21.55
2023-02-14T00:50:06.369Z,20.45
2023-02-14T00:52:38.231Z,24.00
2023-02-14T00:55:10.158Z,19.35
2023-02-14T00:57:42.122Z,24.92
2023-02-14T01:00:14.664Z,17.92
2023-02-14T01:02:46.791Z,19.17
2023-02-14T01:05:19.202Z,19.38
2023-02-14T01:07:51.040Z,20.33
2023-02-14T01:10:22.912Z,19.48
2023-02-14T01:12:56.560Z,23.80
2023-02-14T01:15:29.169Z,21.35
2023-02-14T01:18:01.169Z,17.80
2023-02-14T01:20:33.502Z,19.70
2023-02-14T01:23:05.397Z,18.95
2023-02-14T01:25:38.218Z,17.85
2023-02-14T01:28:10.072Z,16.73
2023-02-14T01:30:41.996Z,18.58
2023-02-14T01:33:15.002Z,19.85
2023-02-14T01:35:46.841Z,20.30
2023-02-14T01:38:20.015Z,24.77
2023-02-14T01:40:52.077Z,16.98
2023-02-14T01:43:24.068Z,19.63
2023-02-14T01:45:55.994Z,17.83
2023-02-14T01:48:27.973Z,17.00
2023-02-14T01:51:00.134Z,18.80
2023-02-14T01:53:33.044Z,20.50
2023-02-14T01:56:09.890Z,18.98
2023-02-14T01:58:45.647Z,19.73
2023-02-14T02:01:18.073Z,18.45
2023-02-14T02:03:55.621Z,18.45
2023-02-14T02:06:52.384Z,20.25
2023-02-14T02:09:46.521Z,19.20
2023-02-14T02:12:18.804Z,21.55
2023-02-14T02:14:54.302Z,20.90
2023-02-14T02:17:44.537Z,19.55
2023-02-14T02:20:22.221Z,18.60
2023-02-14T02:23:10.287Z,18.20
2023-02-14T02:26:16.084Z,18.52
2023-02-14T02:29:25.626Z,16.45
2023-02-14T02:32:35.690Z,18.63
2023-02-14T02:35:20.951Z,19.35
2023-02-14T02:38:09.851Z,17.50
2023-02-14T02:41:15.316Z,17.38
2023-02-14T02:44:12.243Z,16.25
2023-02-14T02:46:54.715Z,13.07
2023-02-14T02:50:22.247Z,16.58
2023-02-14T02:53:18.605Z,18.67
2023-02-14T02:56:21.999Z,15.98
2023-02-14T02:59:04.912Z,17.77
2023-02-14T03:01:39.500Z,19.80
2023-02-14T03:04:47.956Z,18.60
2023-02-14T03:07:37.513Z,18.33
2023-02-14T03:10:26.409Z,19.45
2023-02-14T03:13:30.143Z,18.67
2023-02-14T03:16:14.199Z,21.05
2023-02-14T03:19:17.244Z,17.73
2023-02-14T03:21:58.460Z,18.58
2023-02-14T03:24:44.317Z,19.08
2023-02-14T03:27:25.717Z,17.70
2023-02-14T03:30:17.910Z,16.50
2023-02-14T03:32:52.924Z,14.25
2023-02-14T03:35:54.796Z,16.00
2023-02-14T03:38:55.060Z,18.65
2023-02-14T03:41:34.448Z,16.85
2023-02-14T03:44:11.343Z,16.25
2023-02-14T03:46:51.387Z,15.63
2023-02-14T03:49:29.482Z,15.25
2023-02-14T03:52:03.175Z,18.08
2023-02-14T03:54:36.489Z,16.63
2023-02-14T03:57:26.251Z,13.32
2023-02-14T03:59:58.396Z,16.80
2023-02-14T04:02:37.228Z,14.15
2023-02-14T04:05:14.905Z,15.73
2023-02-14T04:07:49.970Z,19.02
2023-02-14T04:10:23.185Z,14.13
2023-02-14T04:12:55.115Z,14.98
2023-02-14T04:15:27.116Z,12.88
2023-02-14T04:18:17.696Z,18.70
2023-02-14T04:20:49.536Z,15.57
2023-02-14T04:23:21.388Z,16.08
2023-02-14T04:25:53.288Z,13.55
2023-02-14T04:28:25.192Z,20.10
2023-02-14T04:30:57.604Z,14.35
2023-02-14T04:33:29.887Z,15.73
2023-02-14T04:36:01.760Z,16.58
2023-02-14T04:38:33.708Z,14.90
2023-02-14T04:41:05.891Z,14.77
2023-02-14T04:43:37.735Z,16.27
2023-02-14T04:46:09.595Z,14.07
2023-02-14T04:48:41.436Z,14.35
2023-02-14T04:51:13.318Z,15.55
2023-02-14T04:53:45.088Z,18.60
2023-02-14T04:56:16.946Z,16.02
2023-02-14T04:58:48.802Z,13.20
2023-02-14T05:01:21.013Z,16.48
2023-02-14T05:03:52.904Z,15.60
2023-02-14T05:06:24.839Z,16.60
2023-02-14T05:08:56.774Z,12.75
2023-02-14T05:11:29.596Z,16.92
2023-02-14T05:14:01.468Z,18.23
2023-02-14T05:16:33.517Z,16.42
2023-02-14T05:19:05.426Z,17.38
2023-02-14T05:21:38.310Z,22.13
2023-02-14T05:24:10.215Z,15.52
2023-02-14T05:26:42.168Z,18.85
2023-02-14T05:29:14.051Z,17.70
2023-02-14T05:31:46.023Z,14.57
2023-02-14T05:34:18.764Z,15.43
2023-02-14T05:36:50.683Z,14.80
2023-02-14T05:39:22.544Z,20.95
2023-02-14T05:41:55.005Z,19.30
2023-02-14T05:44:26.870Z,44.58
2023-02-14T05:46:58.738Z,22.27
2023-02-14T05:49:30.601Z,20.10
2023-02-14T05:52:02.498Z,19.58
2023-02-14T05:54:34.423Z,21.60
2023-02-14T05:57:06.331Z,18.55
2023-02-14T05:59:38.178Z,21.35
2023-02-14T06:02:10.150Z,19.42
2023-02-14T06:04:42.640Z,19.00
2023-02-14T06:07:14.528Z,20.77
2023-02-14T06:09:46.346Z,19.42
2023-02-14T06:12:18.273Z,29.40
2023-02-14T06:14:50.104Z,32.13
2023-02-14T06:17:21.931Z,22.85
2023-02-14T06:19:53.814Z,17.80
2023-02-14T06:22:25.662Z,19.05
2023-02-14T06:24:57.530Z,45.03
2023-02-14T06:27:30.436Z,101.53
2023-02-14T06:30:02.405Z,74.95
2023-02-14T06:32:34.279Z,36.90
2023-02-14T06:35:06.744Z,26.90
2023-02-14T06:37:41.127Z,21.13
2023-02-14T06:40:13.404Z,14.93
2023-02-14T06:42:45.376Z,16.83
2023-02-14T06:45:17.322Z,21.20
2023-02-14T06:47:49.154Z,22.10
2023-02-14T06:50:21.005Z,25.63
2023-02-14T06:52:52.867Z,21.85
2023-02-14T06:55:24.958Z,20.30
2023-02-14T06:57:56.853Z,18.00
2023-02-14T07:00:28.761Z,19.60
2023-02-14T07:03:00.806Z,19.35
2023-02-14T07:05:33.472Z,28.10
2023-02-14T07:08:07.221Z,30.40
2023-02-14T07:10:39.498Z,28.33
2023-02-14T07:13:11.429Z,27.52
2023-02-14T07:15:43.337Z,25.33
2023-02-14T07:18:15.532Z,27.17
2023-02-14T07:20:47.386Z,23.50
2023-02-14T07:23:19.275Z,31.20
2023-02-14T07:25:51.169Z,22.75
2023-02-14T07:28:22.996Z,29.50
2023-02-14T07:30:54.823Z,26.17
2023-02-14T07:33:26.858Z,24.67
2023-02-14T07:35:58.693Z,27.75
2023-02-14T07:38:30.597Z,30.88
2023-02-14T07:41:02.622Z,25.77
2023-02-14T07:43:34.568Z,30.52
2023-02-14T07:46:06.817Z,21.83
2023-02-14T07:48:39.360Z,30.30
2023-02-14T07:51:11.320Z,37.40
2023-02-14T07:53:43.974Z,21.17
2023-02-14T07:56:15.754Z,22.73
2023-02-14T07:58:49.692Z,24.48
2023-02-14T08:01:21.709Z,24.50
2023-02-14T08:03:53.620Z,24.00
2023-02-14T08:06:27.813Z,20.00
2023-02-14T08:09:00.453Z,26.48
2023-02-14T08:11:52.324Z,27.20
2023-02-14T08:14:24.604Z,20.30
2023-02-14T08:16:56.419Z,28.85
2023-02-14T08:19:28.532Z,31.63
2023-02-14T08:22:00.475Z,23.42
2023-02-14T08:24:32.484Z,21.63
2023-02-14T08:27:04.540Z,19.85
2023-02-14T08:29:36.456Z,22.65
2023-02-14T08:32:08.674Z,20.63
2023-02-14T08:34:40.608Z,22.05
2023-02-14T08:37:12.893Z,20.33
2023-02-14T08:39:44.776Z,23.90
2023-02-14T08:42:16.788Z,18.42
2023-02-14T08:44:48.773Z,23.58
2023-02-14T08:47:20.609Z,35.35
2023-02-14T08:49:52.493Z,22.05
2023-02-14T08:52:24.376Z,17.42
2023-02-14T08:54:56.709Z,19.15
2023-02-14T08:57:28.782Z,23.23
2023-02-14T09:00:00.742Z,25.30
2023-02-14T09:02:32.629Z,19.80
2023-02-14T09:05:04.740Z,23.40
2023-02-14T09:07:36.684Z,17.90
2023-02-14T09:10:08.977Z,24.30
2023-02-14T09:12:41.911Z,22.33
2023-02-14T09:15:13.863Z,21.35
2023-02-14T09:17:45.873Z,20.63
2023-02-14T09:20:17.985Z,24.00
2023-02-14T09:22:50.241Z,19.65
2023-02-14T09:25:22.376Z,22.45
2023-02-14T09:27:54.431Z,19.30
2023-02-14T09:30:26.441Z,23.55
2023-02-14T09:32:58.384Z,26.17
2023-02-14T09:35:48.787Z,23.15
2023-02-14T09:38:20.871Z,25.90
2023-02-14T09:40:52.712Z,22.95
2023-02-14T09:43:51.706Z,27.70
2023-02-14T09:46:26.540Z,21.60
2023-02-14T09:48:59.316Z,22.20
2023-02-14T09:51:32.259Z,23.75
2023-02-14T09:54:18.977Z,21.20
2023-02-14T09:57:13.545Z,24.40
2023-02-14T10:00:11.110Z,23.95
2023-02-14T10:03:19.415Z,24.50
2023-02-14T10:06:03.220Z,29.10
2023-02-14T10:09:01.178Z,27.33
2023-02-14T10:11:33.861Z,23.42
2023-02-14T10:14:15.870Z,26.83
2023-02-14T10:16:54.457Z,26.83
2023-02-14T10:19:38.292Z,27.52
2023-02-14T10:22:19.270Z,30.33
2023-02-14T10:25:01.521Z,25.13
2023-02-14T10:27:35.105Z,26.73
2023-02-14T10:30:17.057Z,25.92
2023-02-14T10:33:11.056Z,27.52
2023-02-14T10:35:50.028Z,23.73
2023-02-14T10:38:34.120Z,26.58
2023-02-14T10:41:29.585Z,23.83
2023-02-14T10:44:38.968Z,24.42
2023-02-14T10:47:13.814Z,25.83
2023-02-14T10:50:30.041Z,25.10
2023-02-14T10:53:28.119Z,24.65
2023-02-14T10:56:28.007Z,26.00
2023-02-14T10:59:11.886Z,23.50
2023-02-14T11:01:44.823Z,24.60
2023-02-14T11:04:18.468Z,24.25
2023-02-14T11:06:50.444Z,24.98
2023-02-14T11:09:22.516Z,25.70
2023-02-14T11:11:57.085Z,27.70
2023-02-14T11:14:35.901Z,24.67
2023-02-14T11:17:31.169Z,22.85
2023-02-14T11:20:26.377Z,24.08
2023-02-14T11:22:58.510Z,23.15
2023-02-14T11:25:31.829Z,24.10
2023-02-14T11:28:07.903Z,20.65
2023-02-14T11:30:41.620Z,24.15
2023-02-14T11:33:32.871Z,20.52
2023-02-14T11:36:10.928Z,21.55
2023-02-14T11:38:45.160Z,22.65
2023-02-14T11:41:18.180Z,22.95
2023-02-14T11:43:52.407Z,25.65
2023-02-14T11:46:24.581Z,23.60
2023-02-14T11:49:23.577Z,21.67
2023-02-14T11:51:57.859Z,26.25
2023-02-14T11:54:36.863Z,21.70
2023-02-14T11:57:15.853Z,18.05
2023-02-14T11:59:53.404Z,21.80
2023-02-14T12:02:38.967Z,20.58
2023-02-14T12:05:26.197Z,22.98
2023-02-14T12:08:02.156Z,20.80
2023-02-14T12:10:36.396Z,18.88
2023-02-14T12:13:08.179Z,21.10
2023-02-14T12:15:52.107Z,18.55
2023-02-14T12:18:55.513Z,20.63
2023-02-14T12:21:38.984Z,18.20
2023-02-14T12:24:19.769Z,18.60
2023-02-14T12:27:06.329Z,16.65
2023-02-14T12:29:50.491Z,15.70
2023-02-14T12:32:27.719Z,16.38
2023-02-14T12:35:04.383Z,14.05
2023-02-14T12:37:41.002Z,13.80
2023-02-14T12:40:22.567Z,29.70
2023-02-14T12:43:19.319Z,14.63
2023-02-14T12:46:07.174Z,15.02
2023-02-14T12:49:03.604Z,14.23
2023-02-14T12:51:51.814Z,14.88
2023-02-14T12:54:34.841Z,17.17
2023-02-14T12:57:18.616Z,14.73
2023-02-14T13:00:15.438Z,16.25
2023-02-14T13:03:03.403Z,17.98
2023-02-14T13:05:41.057Z,17.80
2023-02-14T13:08:26.885Z,17.35
2023-02-14T13:11:06.785Z,16.02
2023-02-14T13:13:44.420Z,18.40
2023-02-14T13:16:36.199Z,19.48
2023-02-14T13:19:19.525Z,16.33
2023-02-14T13:21:52.041Z,11.95
2023-02-14T13:24:29.484Z,15.45
2023-02-14T13:27:05.563Z,17.83
2023-02-14T13:29:54.369Z,13.40
2023-02-14T13:32:31.904Z,15.70
2023-02-14T13:35:06.783Z,16.77
2023-02-14T13:37:39.073Z,14.32
2023-02-14T13:40:22.123Z,16.42
2023-02-14T13:42:56.694Z,15.65
2023-02-14T13:45:37.492Z,18.38
2023-02-14T13:48:29.359Z,16.73
2023-02-14T13:51:07.621Z,18.77
2023-02-14T13:53:47.675Z,17.77
2023-02-14T13:56:19.460Z,18.23
2023-02-14T13:58:59.908Z,17.23
2023-02-14T14:01:48.171Z,14.30
2023-02-14T14:04:29.252Z,16.08
2023-02-14T14:07:03.915Z,19.27
2023-02-14T14:09:45.593Z,18.25
2023-02-14T14:12:29.520Z,19.15
2023-02-14T14:15:08.137Z,16.83
2023-02-14T14:17:46.400Z,15.63
2023-02-14T14:20:21.031Z,16.60
2023-02-14T14:22:58.487Z,19.15
2023-02-14T14:25:39.543Z,17.25
2023-02-14T14:28:20.802Z,19.75
2023-02-14T14:33:26.488Z,24.58
2023-02-14T14:36:00.034Z,26.02
2023-02-14T14:38:33.683Z,26.58
2023-02-14T14:41:05.933Z,26.67
2023-02-14T14:43:40.178Z,29.60
2023-02-14T14:46:13.885Z,25.67
2023-02-14T14:48:51.559Z,30.75
2023-02-14T14:51:30.505Z,33.63
2023-02-14T14:54:25.074Z,28.40
2023-02-14T14:57:01.719Z,33.42
2023-02-14T14:59:36.023Z,33.25
2023-02-14T15:02:23.145Z,34.45
2023-02-14T15:04:55.082Z,33.50
2023-02-14T15:07:32.911Z,38.75
2023-02-14T15:10:22.050Z,34.20
2023-02-14T15:13:15.834Z,32.58
2023-02-14T15:15:50.876Z,34.25
2023-02-14T15:18:22.912Z,34.58
2023-02-14T15:20:55.116Z,35.65
2023-02-14T15:23:28.205Z,35.13
2023-02-14T15:26:00.940Z,40.88
2023-02-14T15:28:35.418Z,44.05
2023-02-14T15:31:08.000Z,38.65
2023-02-14T15:33:40.301Z,36.25
2023-02-14T15:36:20.520Z,40.08
2023-02-14T15:38:54.610Z,39.95
2023-02-14T15:41:27.201Z,39.08
2023-02-14T15:43:59.478Z,40.20
2023-02-14T15:46:36.786Z,39.17
2023-02-14T15:49:10.850Z,40.97
2023-02-14T15:51:43.370Z,41.03
2023-02-14T15:54:31.321Z,44.13
2023-02-14T15:57:04.477Z,40.63
2023-02-14T15:59:41.133Z,41.83
2023-02-14T16:02:25.234Z,42.08
2023-02-14T16:05:23.703Z,44.15
2023-02-14T16:08:23.024Z,42.38
2023-02-14T16:11:08.913Z,44.30
2023-02-14T16:13:43.374Z,47.58
2023-02-14T16:16:17.066Z,47.45
2023-02-14T16:18:52.207Z,49.15
2023-02-14T16:21:32.735Z,47.42
2023-02-14T16:24:07.590Z,49.80
2023-02-14T16:26:44.622Z,48.28
2023-02-14T16:29:20.930Z,46.60
2023-02-14T16:34:49.953Z,51.28
2023-02-14T16:37:33.965Z,45.58
2023-02-14T16:40:14.245Z,50.15
2023-02-14T16:42:46.190Z,52.67
2023-02-14T16:45:19.708Z,55.58
2023-02-14T16:47:51.566Z,70.15
2023-02-14T16:50:23.529Z,56.53
2023-02-14T16:52:57.858Z,54.28
2023-02-14T16:55:30.234Z,51.13
2023-02-14T16:58:03.434Z,51.72
2023-02-14T17:00:35.913Z,45.60
2023-02-14T17:03:07.885Z,48.28
2023-02-14T17:05:40.679Z,45.97
2023-02-14T17:08:15.017Z,43.85
2023-02-14T17:10:48.559Z,44.33
2023-02-14T17:13:24.002Z,53.47
2023-02-14T17:15:57.037Z,47.85
2023-02-14T17:18:32.992Z,44.60
2023-02-14T17:21:05.149Z,40.85
2023-02-14T17:23:37.363Z,51.75
2023-02-14T17:26:11.233Z,51.40
2023-02-14T17:28:43.124Z,55.45
2023-02-14T17:31:15.283Z,51.10
2023-02-14T17:33:48.569Z,55.58
2023-02-14T17:36:20.536Z,56.05
2023-02-14T17:38:54.357Z,47.97
2023-02-14T17:41:26.950Z,41.55
2023-02-14T17:44:00.417Z,45.55
2023-02-14T17:46:32.491Z,50.00
2023-02-14T17:49:04.443Z,41.75
2023-02-14T17:51:36.362Z,51.55
2023-02-14T17:54:08.760Z,50.00
2023-02-14T17:56:40.939Z,51.00
2023-02-14T17:59:12.836Z,45.33
2023-02-14T18:01:44.777Z,40.83
2023-02-14T18:04:16.786Z,42.08
2023-02-14T18:06:48.669Z,42.55
2023-02-14T18:09:21.605Z,48.80
2023-02-14T18:11:53.565Z,42.97
2023-02-14T18:14:25.558Z,49.72
2023-02-14T18:16:57.387Z,41.75
2023-02-14T18:19:29.447Z,40.05
2023-02-14T18:22:01.471Z,40.08
2023-02-14T18:24:33.472Z,45.88
2023-02-14T18:27:06.394Z,40.88
2023-02-14T18:29:39.365Z,53.13
2023-02-14T18:32:11.449Z,36.60
2023-02-14T18:34:43.274Z,44.67
2023-02-14T18:37:15.816Z,45.05
2023-02-14T18:39:47.668Z,38.47
2023-02-14T18:42:19.653Z,44.92
2023-02-14T18:44:51.531Z,41.80
2023-02-14T18:47:23.395Z,41.40
2023-02-14T18:49:55.321Z,43.47
2023-02-14T18:52:27.241Z,42.75
2023-02-14T18:54:59.417Z,45.40
2023-02-14T18:57:33.598Z,46.78
2023-02-14T19:00:12.331Z,39.20
2023-02-14T19:02:44.653Z,41.90
2023-02-14T19:05:16.487Z,40.47
2023-02-14T19:07:48.849Z,61.90
2023-02-14T19:10:20.834Z,45.67
2023-02-14T19:12:53.430Z,44.67
2023-02-14T19:15:25.357Z,41.38
2023-02-14T19:17:57.184Z,42.08
2023-02-14T19:20:29.119Z,38.60
2023-02-14T19:23:00.948Z,35.97
2023-02-14T19:25:34.551Z,44.42
2023-02-14T19:28:11.222Z,42.25
2023-02-14T19:30:43.108Z,39.45
2023-02-14T19:33:15.372Z,36.80
2023-02-14T19:35:47.785Z,38.65
2023-02-14T19:38:19.714Z,37.30
2023-02-14T19:40:51.496Z,36.45
2023-02-14T19:43:23.846Z,38.35
2023-02-14T19:45:55.734Z,37.25
2023-02-14T19:48:27.701Z,34.92
2023-02-14T19:51:00.631Z,36.28
2023-02-14T19:53:34.273Z,35.75
2023-02-14T19:56:06.393Z,31.98
2023-02-14T19:58:38.397Z,31.40
2023-02-14T20:01:24.133Z,32.55
2023-02-14T20:03:56.484Z,32.88
2023-02-14T20:06:31.697Z,34.70
2023-02-14T20:09:04.580Z,40.72
2023-02-14T20:11:57.079Z,37.95
2023-02-14T20:14:49.892Z,31.83
2023-02-14T20:17:23.114Z,39.33
2023-02-14T20:19:55.909Z,35.55
2023-02-14T20:22:28.113Z,30.70
2023-02-14T20:25:00.108Z,31.42
2023-02-14T20:27:32.064Z,32.53
2023-02-14T20:30:05.462Z,52.67
2023-02-14T20:32:37.417Z,102.85
2023-02-14T20:35:09.463Z,35.38
2023-02-14T20:37:49.007Z,33.80
2023-02-14T20:40:28.219Z,29.27
2023-02-14T20:43:08.908Z,32.65
2023-02-14T20:45:47.693Z,31.58
2023-02-14T20:51:33.306Z,30.90
2023-02-14T20:54:05.244Z,37.40
2023-02-14T20:56:58.911Z,32.70
2023-02-14T20:59:37.862Z,32.58
2023-02-14T21:02:10.176Z,36.47
2023-02-14T21:04:42.036Z,31.92
2023-02-14T21:07:15.230Z,30.77
2023-02-14T21:09:47.588Z,30.33
2023-02-14T21:12:22.811Z,29.95
2023-02-14T21:14:55.080Z,29.02
2023-02-14T21:17:27.941Z,31.02
2023-02-14T21:20:00.169Z,32.50
2023-02-14T21:22:32.225Z,29.95
2023-02-14T21:25:05.161Z,27.13
2023-02-14T21:27:38.661Z,27.77
2023-02-14T21:30:11.341Z,26.77
2023-02-14T21:32:43.270Z,27.73
2023-02-14T21:35:15.313Z,31.45
2023-02-14T21:37:47.234Z,27.92
2023-02-14T21:40:19.370Z,30.25
2023-02-14T21:42:51.430Z,27.88
2023-02-14T21:45:41.868Z,49.33
2023-02-14T21:48:32.186Z,27.67
2023-02-14T21:51:06.626Z,27.15
2023-02-14T21:53:39.104Z,30.58
2023-02-14T21:56:17.987Z,26.45
2023-02-14T21:58:52.445Z,27.42
2023-02-14T22:01:31.630Z,30.15
2023-02-14T22:04:08.988Z,35.38
2023-02-14T22:06:46.672Z,26.05
2023-02-14T22:09:18.997Z,30.02
2023-02-14T22:11:50.873Z,32.85
2023-02-14T22:14:22.773Z,30.38
2023-02-14T22:16:55.285Z,27.70
2023-02-14T22:19:27.773Z,30.13
2023-02-14T22:21:59.665Z,31.67
2023-02-14T22:24:31.538Z,25.88
2023-02-14T22:27:03.606Z,24.63
2023-02-14T22:29:36.203Z,28.40
2023-02-14T22:32:08.499Z,28.90
2023-02-14T22:34:40.571Z,25.40
2023-02-14T22:37:12.485Z,25.05
2023-02-14T22:39:44.368Z,33.17
2023-02-14T22:42:16.305Z,23.52
2023-02-14T22:44:48.135Z,24.02
2023-02-14T22:47:19.978Z,25.23
2023-02-14T22:49:51.848Z,24.65
2023-02-14T22:52:23.674Z,22.25
2023-02-14T22:54:55.624Z,23.27
2023-02-14T22:57:27.542Z,20.65
2023-02-14T22:59:59.451Z,23.83
2023-02-14T23:02:31.330Z,23.17
2023-02-14T23:05:03.254Z,22.80
2023-02-14T23:07:35.157Z,20.38
2023-02-14T23:10:08.449Z,17.73
2023-02-14T23:12:59.085Z,20.63
2023-02-14T23:15:49.629Z,21.15
2023-02-14T23:18:39.882Z,25.58
2023-02-14T23:21:32.147Z,20.48
2023-02-14T23:24:04.206Z,26.52
2023-02-14T23:26:37.331Z,24.10
2023-02-14T23:29:09.350Z,25.40
2023-02-14T23:31:41.399Z,23.95
2023-02-14T23:34:13.891Z,23.75
2023-02-14T23:36:46.227Z,21.67
2023-02-14T23:39:18.241Z,19.83
2023-02-14T23:41:50.312Z,22.35
2023-02-14T23:44:24.760Z,22.85
2023-02-14T23:46:58.973Z,20.88
2023-02-14T23:49:32.666Z,26.27
2023-02-14T23:52:10.251Z,21.67
2023-02-14T23:54:42.152Z,24.13
2023-02-14T23:57:14.249Z,22.23
2023-02-14T23:59:46.474Z,24.48
